sensor_id;sensor_type;location;lat;lon;timestamp;P1;durP1;ratioP1;P2;durP2;ratioP2
17259;SDS011;8746;49.230;9.220;2023-04-09T00:01:48;7.67;;;6.10;;
17259;SDS011;8746;49.230;9.220;2023-04-09T00:04:13;7.60;;;6.20;;
17259;SDS011;8746;49.230;9.220;2023-04-09T00:06:39;9.70;;;6.33;;
17259;SDS011;8746;49.230;9.220;2023-04-09T00:09:05;7.90;;;6.60;;
17259;SDS011;8746;49.230;9.220;2023-04-09T00:11:30;9.77;;;7.07;;
17259;SDS011;8746;49.230;9.220;2023-04-09T00:13:56;9.50;;;7.03;;
17259;SDS011;8746;49.230;9.220;2023-04-09T00:16:22;7.80;;;6.67;;
17259;SDS011;8746;49.230;9.220;2023-04-09T00:18:47;8.63;;;6.60;;
17259;SDS011;8746;49.230;9.220;2023-04-09T00:21:13;9.00;;;6.70;;
17259;SDS011;8746;49.230;9.220;2023-04-09T00:23:40;9.53;;;7.33;;
17259;SDS011;8746;49.230;9.220;2023-04-09T00:26:05;8.97;;;7.00;;
17259;SDS011;8746;49.230;9.220;2023-04-09T00:28:31;7.87;;;6.17;;
17259;SDS011;8746;49.230;9.220;2023-04-09T00:30:56;9.27;;;7.00;;
17259;SDS011;8746;49.230;9.220;2023-04-09T00:33:21;8.57;;;6.90;;
17259;SDS011;8746;49.230;9.220;2023-04-09T00:35:47;8.80;;;6.80;;
17259;SDS011;8746;49.230;9.220;2023-04-09T00:38:12;8.77;;;6.93;;
17259;SDS011;8746;49.230;9.220;2023-04-09T00:40:37;8.13;;;6.50;;
17259;SDS011;8746;49.230;9.220;2023-04-09T00:43:03;9.27;;;6.90;;
17259;SDS011;8746;49.230;9.220;2023-04-09T00:45:28;9.33;;;7.17;;
17259;SDS011;8746;49.230;9.220;2023-04-09T00:47:53;8.33;;;6.47;;
17259;SDS011;8746;49.230;9.220;2023-04-09T00:50:20;9.33;;;6.70;;
17259;SDS011;8746;49.230;9.220;2023-04-09T00:52:45;9.80;;;7.50;;
17259;SDS011;8746;49.230;9.220;2023-04-09T00:55:11;10.83;;;7.00;;
17259;SDS011;8746;49.230;9.220;2023-04-09T00:57:37;10.67;;;7.60;;
17259;SDS011;8746;49.230;9.220;2023-04-09T01:00:02;10.43;;;7.77;;
17259;SDS011;8746;49.230;9.220;2023-04-09T01:02:28;8.90;;;7.10;;
17259;SDS011;8746;49.230;9.220;2023-04-09T01:04:54;10.10;;;7.37;;
17259;SDS011;8746;49.230;9.220;2023-04-09T01:15:38;9.63;;;7.63;;
17259;SDS011;8746;49.230;9.220;2023-04-09T01:18:12;11.63;;;7.67;;
17259;SDS011;8746;49.230;9.220;2023-04-09T01:20:59;9.17;;;6.93;;
17259;SDS011;8746;49.230;9.220;2023-04-09T01:29:05;9.80;;;6.90;;
17259;SDS011;8746;49.230;9.220;2023-04-09T01:31:33;9.67;;;6.90;;
17259;SDS011;8746;49.230;9.220;2023-04-09T01:34:01;10.80;;;7.40;;
17259;SDS011;8746;49.230;9.220;2023-04-09T01:36:27;8.83;;;7.20;;
17259;SDS011;8746;49.230;9.220;2023-04-09T01:38:56;10.60;;;7.37;;
17259;SDS011;8746;49.230;9.220;2023-04-09T01:41:24;10.67;;;7.30;;
17259;SDS011;8746;49.230;9.220;2023-04-09T01:43:51;9.97;;;7.33;;
17259;SDS011;8746;49.230;9.220;2023-04-09T01:46:17;11.10;;;7.67;;
17259;SDS011;8746;49.230;9.220;2023-04-09T01:48:44;12.00;;;7.90;;
17259;SDS011;8746;49.230;9.220;2023-04-09T01:51:12;10.93;;;7.63;;
17259;SDS011;8746;49.230;9.220;2023-04-09T01:53:38;10.23;;;7.40;;
17259;SDS011;8746;49.230;9.220;2023-04-09T01:56:04;12.83;;;7.60;;
17259;SDS011;8746;49.230;9.220;2023-04-09T01:58:30;10.43;;;7.80;;
17259;SDS011;8746;49.230;9.220;2023-04-09T02:03:56;12.17;;;7.97;;
17259;SDS011;8746;49.230;9.220;2023-04-09T02:06:30;10.50;;;7.40;;
17259;SDS011;8746;49.230;9.220;2023-04-09T02:09:03;11.63;;;8.00;;
17259;SDS011;8746;49.230;9.220;2023-04-09T02:11:32;12.67;;;8.27;;
17259;SDS011;8746;49.230;9.220;2023-04-09T02:14:00;9.67;;;7.33;;
17259;SDS011;8746;49.230;9.220;2023-04-09T02:16:28;11.30;;;8.10;;
17259;SDS011;8746;49.230;9.220;2023-04-09T02:18:55;9.97;;;7.63;;
17259;SDS011;8746;49.230;9.220;2023-04-09T02:21:21;11.03;;;8.30;;
17259;SDS011;8746;49.230;9.220;2023-04-09T02:23:47;12.10;;;7.90;;
17259;SDS011;8746;49.230;9.220;2023-04-09T02:26:13;12.63;;;8.83;;
17259;SDS011;8746;49.230;9.220;2023-04-09T02:28:38;11.13;;;8.07;;
17259;SDS011;8746;49.230;9.220;2023-04-09T02:31:03;12.10;;;8.30;;
17259;SDS011;8746;49.230;9.220;2023-04-09T02:33:29;12.07;;;8.10;;
17259;SDS011;8746;49.230;9.220;2023-04-09T02:35:54;10.90;;;8.07;;
17259;SDS011;8746;49.230;9.220;2023-04-09T02:38:20;12.20;;;8.83;;
17259;SDS011;8746;49.230;9.220;2023-04-09T02:40:45;10.97;;;8.27;;
17259;SDS011;8746;49.230;9.220;2023-04-09T02:43:10;11.07;;;7.80;;
17259;SDS011;8746;49.230;9.220;2023-04-09T02:45:36;10.57;;;8.13;;
17259;SDS011;8746;49.230;9.220;2023-04-09T02:48:01;11.57;;;8.30;;
17259;SDS011;8746;49.230;9.220;2023-04-09T02:50:27;11.27;;;7.93;;
17259;SDS011;8746;49.230;9.220;2023-04-09T02:52:52;9.87;;;7.83;;
17259;SDS011;8746;49.230;9.220;2023-04-09T02:55:18;11.17;;;8.43;;
17259;SDS011;8746;49.230;9.220;2023-04-09T02:57:43;11.00;;;8.03;;
17259;SDS011;8746;49.230;9.220;2023-04-09T03:00:09;12.97;;;8.37;;
17259;SDS011;8746;49.230;9.220;2023-04-09T03:02:35;11.90;;;8.63;;
17259;SDS011;8746;49.230;9.220;2023-04-09T03:05:00;11.30;;;8.17;;
17259;SDS011;8746;49.230;9.220;2023-04-09T03:07:26;11.43;;;8.27;;
17259;SDS011;8746;49.230;9.220;2023-04-09T03:09:51;11.80;;;8.67;;
17259;SDS011;8746;49.230;9.220;2023-04-09T03:12:17;10.97;;;8.17;;
17259;SDS011;8746;49.230;9.220;2023-04-09T03:14:42;12.50;;;9.27;;
17259;SDS011;8746;49.230;9.220;2023-04-09T03:17:07;12.10;;;7.97;;
17259;SDS011;8746;49.230;9.220;2023-04-09T03:19:33;13.47;;;9.40;;
17259;SDS011;8746;49.230;9.220;2023-04-09T03:21:58;12.97;;;9.13;;
17259;SDS011;8746;49.230;9.220;2023-04-09T03:24:23;11.87;;;8.67;;
17259;SDS011;8746;49.230;9.220;2023-04-09T03:26:49;14.00;;;9.20;;
17259;SDS011;8746;49.230;9.220;2023-04-09T03:29:14;11.23;;;8.27;;
17259;SDS011;8746;49.230;9.220;2023-04-09T03:31:40;11.57;;;8.47;;
17259;SDS011;8746;49.230;9.220;2023-04-09T03:34:05;13.87;;;9.53;;
17259;SDS011;8746;49.230;9.220;2023-04-09T03:36:30;15.33;;;10.13;;
17259;SDS011;8746;49.230;9.220;2023-04-09T03:38:56;15.40;;;10.00;;
17259;SDS011;8746;49.230;9.220;2023-04-09T03:41:22;13.77;;;9.67;;
17259;SDS011;8746;49.230;9.220;2023-04-09T03:43:47;11.37;;;9.13;;
17259;SDS011;8746;49.230;9.220;2023-04-09T03:46:13;14.37;;;10.23;;
17259;SDS011;8746;49.230;9.220;2023-04-09T03:48:39;13.93;;;9.83;;
17259;SDS011;8746;49.230;9.220;2023-04-09T03:51:05;14.77;;;9.50;;
17259;SDS011;8746;49.230;9.220;2023-04-09T03:53:30;14.50;;;9.53;;
17259;SDS011;8746;49.230;9.220;2023-04-09T03:55:56;12.83;;;9.00;;
17259;SDS011;8746;49.230;9.220;2023-04-09T03:58:21;12.13;;;8.70;;
17259;SDS011;8746;49.230;9.220;2023-04-09T04:00:46;11.97;;;9.30;;
17259;SDS011;8746;49.230;9.220;2023-04-09T04:03:12;13.37;;;8.97;;
17259;SDS011;8746;49.230;9.220;2023-04-09T04:05:40;13.83;;;9.30;;
17259;SDS011;8746;49.230;9.220;2023-04-09T04:08:05;12.90;;;9.63;;
17259;SDS011;8746;49.230;9.220;2023-04-09T04:10:32;11.73;;;8.83;;
17259;SDS011;8746;49.230;9.220;2023-04-09T04:12:58;11.67;;;8.67;;
17259;SDS011;8746;49.230;9.220;2023-04-09T04:15:23;12.10;;;8.97;;
17259;SDS011;8746;49.230;9.220;2023-04-09T04:17:48;14.73;;;9.47;;
17259;SDS011;8746;49.230;9.220;2023-04-09T04:20:14;14.20;;;9.83;;
17259;SDS011;8746;49.230;9.220;2023-04-09T04:22:39;13.53;;;9.20;;
17259;SDS011;8746;49.230;9.220;2023-04-09T04:25:05;12.87;;;9.50;;
17259;SDS011;8746;49.230;9.220;2023-04-09T04:27:30;12.57;;;9.30;;
17259;SDS011;8746;49.230;9.220;2023-04-09T04:29:56;12.93;;;9.47;;
17259;SDS011;8746;49.230;9.220;2023-04-09T04:32:22;13.17;;;9.53;;
17259;SDS011;8746;49.230;9.220;2023-04-09T04:34:48;12.20;;;9.30;;
17259;SDS011;8746;49.230;9.220;2023-04-09T04:37:14;15.43;;;10.03;;
17259;SDS011;8746;49.230;9.220;2023-04-09T04:39:39;13.60;;;9.00;;
17259;SDS011;8746;49.230;9.220;2023-04-09T04:42:04;13.13;;;8.73;;
17259;SDS011;8746;49.230;9.220;2023-04-09T04:44:30;12.33;;;8.97;;
17259;SDS011;8746;49.230;9.220;2023-04-09T04:46:55;12.73;;;9.23;;
17259;SDS011;8746;49.230;9.220;2023-04-09T04:49:20;13.37;;;9.40;;
17259;SDS011;8746;49.230;9.220;2023-04-09T04:51:46;12.50;;;9.07;;
17259;SDS011;8746;49.230;9.220;2023-04-09T04:54:11;14.30;;;9.73;;
17259;SDS011;8746;49.230;9.220;2023-04-09T04:56:36;13.63;;;9.43;;
17259;SDS011;8746;49.230;9.220;2023-04-09T04:59:02;13.00;;;9.47;;
17259;SDS011;8746;49.230;9.220;2023-04-09T05:01:27;18.83;;;12.43;;
17259;SDS011;8746;49.230;9.220;2023-04-09T05:03:52;18.77;;;11.67;;
17259;SDS011;8746;49.230;9.220;2023-04-09T05:06:18;25.43;;;15.33;;
17259;SDS011;8746;49.230;9.220;2023-04-09T05:08:43;22.03;;;15.23;;
17259;SDS011;8746;49.230;9.220;2023-04-09T05:11:11;22.67;;;14.27;;
17259;SDS011;8746;49.230;9.220;2023-04-09T05:13:37;26.00;;;16.83;;
17259;SDS011;8746;49.230;9.220;2023-04-09T05:16:02;21.33;;;13.63;;
17259;SDS011;8746;49.230;9.220;2023-04-09T05:18:28;20.93;;;13.30;;
17259;SDS011;8746;49.230;9.220;2023-04-09T05:20:53;18.20;;;11.43;;
17259;SDS011;8746;49.230;9.220;2023-04-09T05:23:18;16.33;;;11.77;;
17259;SDS011;8746;49.230;9.220;2023-04-09T05:25:44;16.17;;;11.20;;
17259;SDS011;8746;49.230;9.220;2023-04-09T05:28:09;16.53;;;10.10;;
17259;SDS011;8746;49.230;9.220;2023-04-09T05:30:35;14.93;;;10.60;;
17259;SDS011;8746;49.230;9.220;2023-04-09T05:33:00;13.37;;;9.70;;
17259;SDS011;8746;49.230;9.220;2023-04-09T05:35:26;13.63;;;9.93;;
17259;SDS011;8746;49.230;9.220;2023-04-09T05:37:51;14.40;;;9.90;;
17259;SDS011;8746;49.230;9.220;2023-04-09T05:40:16;16.10;;;10.33;;
17259;SDS011;8746;49.230;9.220;2023-04-09T05:42:42;13.20;;;9.83;;
17259;SDS011;8746;49.230;9.220;2023-04-09T05:45:07;14.67;;;10.53;;
17259;SDS011;8746;49.230;9.220;2023-04-09T05:47:33;14.27;;;10.57;;
17259;SDS011;8746;49.230;9.220;2023-04-09T05:49:58;14.67;;;10.57;;
17259;SDS011;8746;49.230;9.220;2023-04-09T05:52:24;14.00;;;10.30;;
17259;SDS011;8746;49.230;9.220;2023-04-09T05:54:49;13.23;;;9.67;;
17259;SDS011;8746;49.230;9.220;2023-04-09T05:57:14;13.73;;;9.73;;
17259;SDS011;8746;49.230;9.220;2023-04-09T05:59:40;13.87;;;9.73;;
17259;SDS011;8746;49.230;9.220;2023-04-09T06:02:05;12.97;;;9.63;;
17259;SDS011;8746;49.230;9.220;2023-04-09T06:04:31;13.30;;;10.00;;
17259;SDS011;8746;49.230;9.220;2023-04-09T06:06:56;16.53;;;10.77;;
17259;SDS011;8746;49.230;9.220;2023-04-09T06:09:24;14.43;;;10.23;;
17259;SDS011;8746;49.230;9.220;2023-04-09T06:11:50;14.03;;;10.67;;
17259;SDS011;8746;49.230;9.220;2023-04-09T06:14:15;14.50;;;10.33;;
17259;SDS011;8746;49.230;9.220;2023-04-09T06:16:42;16.10;;;10.40;;
17259;SDS011;8746;49.230;9.220;2023-04-09T06:19:07;15.10;;;10.00;;
17259;SDS011;8746;49.230;9.220;2023-04-09T06:21:32;14.13;;;11.13;;
17259;SDS011;8746;49.230;9.220;2023-04-09T06:23:58;15.20;;;10.73;;
17259;SDS011;8746;49.230;9.220;2023-04-09T06:26:23;14.53;;;10.87;;
17259;SDS011;8746;49.230;9.220;2023-04-09T06:28:49;14.97;;;10.30;;
17259;SDS011;8746;49.230;9.220;2023-04-09T06:31:14;15.47;;;11.50;;
17259;SDS011;8746;49.230;9.220;2023-04-09T06:33:39;14.97;;;10.60;;
17259;SDS011;8746;49.230;9.220;2023-04-09T06:36:05;15.13;;;10.73;;
17259;SDS011;8746;49.230;9.220;2023-04-09T06:38:30;16.83;;;11.40;;
17259;SDS011;8746;49.230;9.220;2023-04-09T06:40:56;13.57;;;10.67;;
17259;SDS011;8746;49.230;9.220;2023-04-09T06:43:21;14.90;;;10.93;;
17259;SDS011;8746;49.230;9.220;2023-04-09T06:45:48;13.33;;;10.47;;
17259;SDS011;8746;49.230;9.220;2023-04-09T06:48:13;15.80;;;10.80;;
17259;SDS011;8746;49.230;9.220;2023-04-09T06:50:39;14.63;;;10.80;;
17259;SDS011;8746;49.230;9.220;2023-04-09T06:53:05;14.03;;;10.73;;
17259;SDS011;8746;49.230;9.220;2023-04-09T06:55:31;13.07;;;10.00;;
17259;SDS011;8746;49.230;9.220;2023-04-09T06:57:56;15.33;;;10.70;;
17259;SDS011;8746;49.230;9.220;2023-04-09T07:00:21;13.63;;;10.57;;
17259;SDS011;8746;49.230;9.220;2023-04-09T07:02:47;17.00;;;11.93;;
17259;SDS011;8746;49.230;9.220;2023-04-09T07:05:13;15.73;;;11.53;;
17259;SDS011;8746;49.230;9.220;2023-04-09T07:07:39;15.30;;;11.57;;
17259;SDS011;8746;49.230;9.220;2023-04-09T07:10:04;13.43;;;10.43;;
17259;SDS011;8746;49.230;9.220;2023-04-09T07:12:32;13.90;;;10.77;;
17259;SDS011;8746;49.230;9.220;2023-04-09T07:14:59;13.47;;;10.53;;
17259;SDS011;8746;49.230;9.220;2023-04-09T07:17:25;14.50;;;10.77;;
17259;SDS011;8746;49.230;9.220;2023-04-09T07:19:51;13.00;;;10.60;;
17259;SDS011;8746;49.230;9.220;2023-04-09T07:22:18;15.00;;;10.77;;
17259;SDS011;8746;49.230;9.220;2023-04-09T07:24:45;14.20;;;10.23;;
17259;SDS011;8746;49.230;9.220;2023-04-09T07:27:11;13.53;;;10.40;;
17259;SDS011;8746;49.230;9.220;2023-04-09T07:29:36;13.07;;;10.73;;
17259;SDS011;8746;49.230;9.220;2023-04-09T07:32:01;13.40;;;10.50;;
17259;SDS011;8746;49.230;9.220;2023-04-09T07:34:27;13.20;;;10.40;;
17259;SDS011;8746;49.230;9.220;2023-04-09T07:36:53;13.73;;;10.77;;
17259;SDS011;8746;49.230;9.220;2023-04-09T07:39:19;11.73;;;10.13;;
17259;SDS011;8746;49.230;9.220;2023-04-09T07:41:45;12.53;;;10.23;;
17259;SDS011;8746;49.230;9.220;2023-04-09T07:44:11;12.03;;;10.70;;
17259;SDS011;8746;49.230;9.220;2023-04-09T07:46:37;11.90;;;9.77;;
17259;SDS011;8746;49.230;9.220;2023-04-09T07:49:03;12.40;;;10.20;;
17259;SDS011;8746;49.230;9.220;2023-04-09T07:51:29;12.10;;;10.37;;
17259;SDS011;8746;49.230;9.220;2023-04-09T07:53:55;12.83;;;10.20;;
17259;SDS011;8746;49.230;9.220;2023-04-09T07:56:20;12.23;;;10.53;;
17259;SDS011;8746;49.230;9.220;2023-04-09T07:58:46;11.47;;;9.90;;
17259;SDS011;8746;49.230;9.220;2023-04-09T08:01:13;12.53;;;10.67;;
17259;SDS011;8746;49.230;9.220;2023-04-09T08:03:38;13.40;;;10.47;;
17259;SDS011;8746;49.230;9.220;2023-04-09T08:06:04;14.33;;;10.80;;
17259;SDS011;8746;49.230;9.220;2023-04-09T08:08:29;10.13;;;9.10;;
17259;SDS011;8746;49.230;9.220;2023-04-09T08:10:54;10.73;;;8.77;;
17259;SDS011;8746;49.230;9.220;2023-04-09T08:13:21;11.60;;;9.43;;
17259;SDS011;8746;49.230;9.220;2023-04-09T08:15:48;11.67;;;9.23;;
17259;SDS011;8746;49.230;9.220;2023-04-09T08:18:13;11.30;;;9.50;;
17259;SDS011;8746;49.230;9.220;2023-04-09T08:20:38;10.40;;;9.30;;
17259;SDS011;8746;49.230;9.220;2023-04-09T08:23:08;10.63;;;8.90;;
17259;SDS011;8746;49.230;9.220;2023-04-09T08:25:34;9.30;;;8.33;;
17259;SDS011;8746;49.230;9.220;2023-04-09T08:28:00;10.57;;;7.67;;
17259;SDS011;8746;49.230;9.220;2023-04-09T08:30:25;10.03;;;8.90;;
17259;SDS011;8746;49.230;9.220;2023-04-09T08:32:50;10.73;;;8.80;;
17259;SDS011;8746;49.230;9.220;2023-04-09T08:35:16;9.77;;;8.50;;
17259;SDS011;8746;49.230;9.220;2023-04-09T08:37:41;9.60;;;8.63;;
17259;SDS011;8746;49.230;9.220;2023-04-09T08:40:07;10.07;;;8.30;;
17259;SDS011;8746;49.230;9.220;2023-04-09T08:42:33;10.43;;;8.57;;
17259;SDS011;8746;49.230;9.220;2023-04-09T08:45:02;8.97;;;8.07;;
17259;SDS011;8746;49.230;9.220;2023-04-09T08:47:28;8.80;;;7.90;;
17259;SDS011;8746;49.230;9.220;2023-04-09T08:49:55;9.30;;;8.07;;
17259;SDS011;8746;49.230;9.220;2023-04-09T08:52:25;8.93;;;7.77;;
17259;SDS011;8746;49.230;9.220;2023-04-09T08:54:56;8.70;;;7.80;;
17259;SDS011;8746;49.230;9.220;2023-04-09T08:57:21;9.23;;;7.70;;
17259;SDS011;8746;49.230;9.220;2023-04-09T08:59:46;9.40;;;8.20;;
17259;SDS011;8746;49.230;9.220;2023-04-09T09:02:12;9.20;;;7.97;;
17259;SDS011;8746;49.230;9.220;2023-04-09T09:04:47;8.67;;;7.80;;
17259;SDS011;8746;49.230;9.220;2023-04-09T09:07:14;9.30;;;8.40;;
17259;SDS011;8746;49.230;9.220;2023-04-09T09:09:49;8.17;;;7.37;;
17259;SDS011;8746;49.230;9.220;2023-04-09T09:12:35;9.37;;;8.37;;
17259;SDS011;8746;49.230;9.220;2023-04-09T09:15:03;7.57;;;6.80;;
17259;SDS011;8746;49.230;9.220;2023-04-09T09:17:52;9.83;;;8.00;;
17259;SDS011;8746;49.230;9.220;2023-04-09T09:20:19;8.77;;;7.33;;
17259;SDS011;8746;49.230;9.220;2023-04-09T09:22:48;8.57;;;7.67;;
17259;SDS011;8746;49.230;9.220;2023-04-09T09:25:15;7.97;;;7.17;;
17259;SDS011;8746;49.230;9.220;2023-04-09T09:27:40;9.10;;;7.47;;
17259;SDS011;8746;49.230;9.220;2023-04-09T09:30:07;8.50;;;7.13;;
17259;SDS011;8746;49.230;9.220;2023-04-09T09:32:34;7.90;;;6.97;;
17259;SDS011;8746;49.230;9.220;2023-04-09T09:35:03;8.40;;;7.40;;
17259;SDS011;8746;49.230;9.220;2023-04-09T09:37:30;7.70;;;7.00;;
17259;SDS011;8746;49.230;9.220;2023-04-09T09:39:59;7.80;;;6.87;;
17259;SDS011;8746;49.230;9.220;2023-04-09T09:42:24;7.70;;;6.90;;
17259;SDS011;8746;49.230;9.220;2023-04-09T09:44:52;7.83;;;7.03;;
17259;SDS011;8746;49.230;9.220;2023-04-09T09:47:18;8.47;;;6.63;;
17259;SDS011;8746;49.230;9.220;2023-04-09T09:49:49;7.77;;;6.87;;
17259;SDS011;8746;49.230;9.220;2023-04-09T09:52:16;6.97;;;6.07;;
17259;SDS011;8746;49.230;9.220;2023-04-09T09:54:46;6.23;;;5.70;;
17259;SDS011;8746;49.230;9.220;2023-04-09T09:57:14;7.13;;;6.43;;
17259;SDS011;8746;49.230;9.220;2023-04-09T09:59:50;7.70;;;6.80;;
17259;SDS011;8746;49.230;9.220;2023-04-09T10:02:21;7.47;;;6.70;;
17259;SDS011;8746;49.230;9.220;2023-04-09T10:04:48;6.83;;;6.13;;
17259;SDS011;8746;49.230;9.220;2023-04-09T10:07:18;6.80;;;6.10;;
17259;SDS011;8746;49.230;9.220;2023-04-09T10:09:47;5.00;;;4.50;;
17259;SDS011;8746;49.230;9.220;2023-04-09T10:12:14;5.13;;;4.63;;
17259;SDS011;8746;49.230;9.220;2023-04-09T10:14:40;5.70;;;5.20;;
17259;SDS011;8746;49.230;9.220;2023-04-09T10:17:06;5.67;;;5.17;;
17259;SDS011;8746;49.230;9.220;2023-04-09T10:19:34;5.40;;;4.90;;
17259;SDS011;8746;49.230;9.220;2023-04-09T10:22:04;5.40;;;4.90;;
17259;SDS011;8746;49.230;9.220;2023-04-09T10:24:34;5.07;;;4.57;;
17259;SDS011;8746;49.230;9.220;2023-04-09T10:27:10;4.60;;;4.20;;
17259;SDS011;8746;49.230;9.220;2023-04-09T10:29:41;3.70;;;3.40;;
17259;SDS011;8746;49.230;9.220;2023-04-09T10:32:09;4.43;;;4.07;;
17259;SDS011;8746;49.230;9.220;2023-04-09T10:34:39;3.87;;;3.57;;
17259;SDS011;8746;49.230;9.220;2023-04-09T10:37:07;6.40;;;5.23;;
17259;SDS011;8746;49.230;9.220;2023-04-09T10:39:36;4.70;;;4.30;;
17259;SDS011;8746;49.230;9.220;2023-04-09T10:42:06;4.63;;;4.23;;
17259;SDS011;8746;49.230;9.220;2023-04-09T10:44:37;4.50;;;4.10;;
17259;SDS011;8746;49.230;9.220;2023-04-09T10:47:05;4.70;;;4.20;;
17259;SDS011;8746;49.230;9.220;2023-04-09T10:49:36;4.40;;;4.00;;
17259;SDS011;8746;49.230;9.220;2023-04-09T10:52:04;3.97;;;3.67;;
17259;SDS011;8746;49.230;9.220;2023-04-09T10:57:41;4.80;;;4.37;;
17259;SDS011;8746;49.230;9.220;2023-04-09T10:59:49;4.70;;;4.30;;
17259;SDS011;8746;49.230;9.220;2023-04-09T11:07:46;5.07;;;4.67;;
17259;SDS011;8746;49.230;9.220;2023-04-09T11:10:18;5.23;;;4.73;;
17259;SDS011;8746;49.230;9.220;2023-04-09T11:12:45;4.63;;;4.23;;
17259;SDS011;8746;49.230;9.220;2023-04-09T11:15:15;5.03;;;4.53;;
17259;SDS011;8746;49.230;9.220;2023-04-09T11:17:42;5.23;;;4.73;;
17259;SDS011;8746;49.230;9.220;2023-04-09T11:20:09;4.60;;;4.20;;
17259;SDS011;8746;49.230;9.220;2023-04-09T11:22:34;4.53;;;4.13;;
17259;SDS011;8746;49.230;9.220;2023-04-09T11:25:00;4.87;;;4.40;;
17259;SDS011;8746;49.230;9.220;2023-04-09T11:27:25;4.73;;;4.23;;
17259;SDS011;8746;49.230;9.220;2023-04-09T11:29:54;4.67;;;4.27;;
17259;SDS011;8746;49.230;9.220;2023-04-09T11:32:20;4.80;;;4.40;;
17259;SDS011;8746;49.230;9.220;2023-04-09T11:34:45;4.47;;;4.07;;
17259;SDS011;8746;49.230;9.220;2023-04-09T11:37:14;5.10;;;4.60;;
17259;SDS011;8746;49.230;9.220;2023-04-09T11:39:42;5.10;;;4.67;;
17259;SDS011;8746;49.230;9.220;2023-04-09T11:42:17;4.50;;;4.10;;
17259;SDS011;8746;49.230;9.220;2023-04-09T11:44:43;5.00;;;4.50;;
17259;SDS011;8746;49.230;9.220;2023-04-09T11:47:09;5.00;;;4.50;;
17259;SDS011;8746;49.230;9.220;2023-04-09T11:49:35;5.37;;;4.87;;
17259;SDS011;8746;49.230;9.220;2023-04-09T11:52:00;4.83;;;4.43;;
17259;SDS011;8746;49.230;9.220;2023-04-09T11:54:31;3.87;;;3.57;;
17259;SDS011;8746;49.230;9.220;2023-04-09T11:57:02;4.57;;;4.17;;
17259;SDS011;8746;49.230;9.220;2023-04-09T11:59:27;4.63;;;4.23;;
17259;SDS011;8746;49.230;9.220;2023-04-09T12:01:53;4.63;;;4.23;;
17259;SDS011;8746;49.230;9.220;2023-04-09T12:04:21;4.93;;;4.53;;
17259;SDS011;8746;49.230;9.220;2023-04-09T12:06:47;4.07;;;3.77;;
17259;SDS011;8746;49.230;9.220;2023-04-09T12:09:12;4.10;;;3.70;;
17259;SDS011;8746;49.230;9.220;2023-04-09T12:11:38;4.50;;;4.10;;
17259;SDS011;8746;49.230;9.220;2023-04-09T12:14:11;4.80;;;4.40;;
17259;SDS011;8746;49.230;9.220;2023-04-09T12:16:43;3.50;;;3.20;;
17259;SDS011;8746;49.230;9.220;2023-04-09T12:19:09;3.40;;;3.10;;
17259;SDS011;8746;49.230;9.220;2023-04-09T12:24:11;3.00;;;2.80;;
17259;SDS011;8746;49.230;9.220;2023-04-09T12:26:37;3.80;;;3.50;;
17259;SDS011;8746;49.230;9.220;2023-04-09T12:29:02;3.90;;;3.60;;
17259;SDS011;8746;49.230;9.220;2023-04-09T12:31:27;3.80;;;3.50;;
17259;SDS011;8746;49.230;9.220;2023-04-09T12:33:53;4.20;;;3.80;;
17259;SDS011;8746;49.230;9.220;2023-04-09T12:36:18;3.90;;;3.60;;
17259;SDS011;8746;49.230;9.220;2023-04-09T12:38:43;3.50;;;3.20;;
17259;SDS011;8746;49.230;9.220;2023-04-09T12:41:09;2.90;;;2.70;;
17259;SDS011;8746;49.230;9.220;2023-04-09T12:43:35;3.10;;;2.90;;
17259;SDS011;8746;49.230;9.220;2023-04-09T12:46:00;3.10;;;2.90;;
17259;SDS011;8746;49.230;9.220;2023-04-09T12:48:26;3.00;;;2.70;;
17259;SDS011;8746;49.230;9.220;2023-04-09T12:50:52;3.00;;;2.80;;
17259;SDS011;8746;49.230;9.220;2023-04-09T12:53:17;3.20;;;2.90;;
17259;SDS011;8746;49.230;9.220;2023-04-09T12:55:43;2.80;;;2.60;;
17259;SDS011;8746;49.230;9.220;2023-04-09T12:58:08;2.80;;;2.60;;
17259;SDS011;8746;49.230;9.220;2023-04-09T13:00:33;3.10;;;2.80;;
17259;SDS011;8746;49.230;9.220;2023-04-09T13:02:59;2.97;;;2.77;;
17259;SDS011;8746;49.230;9.220;2023-04-09T13:05:24;3.30;;;2.97;;
17259;SDS011;8746;49.230;9.220;2023-04-09T13:07:49;3.07;;;2.87;;
17259;SDS011;8746;49.230;9.220;2023-04-09T13:10:15;2.80;;;2.60;;
17259;SDS011;8746;49.230;9.220;2023-04-09T13:12:40;3.43;;;3.13;;
17259;SDS011;8746;49.230;9.220;2023-04-09T13:15:06;3.27;;;3.07;;
17259;SDS011;8746;49.230;9.220;2023-04-09T13:17:31;3.07;;;2.87;;
17259;SDS011;8746;49.230;9.220;2023-04-09T13:19:57;3.27;;;3.03;;
17259;SDS011;8746;49.230;9.220;2023-04-09T13:22:22;2.90;;;2.70;;
17259;SDS011;8746;49.230;9.220;2023-04-09T13:24:47;3.20;;;2.90;;
17259;SDS011;8746;49.230;9.220;2023-04-09T13:27:13;3.00;;;2.77;;
17259;SDS011;8746;49.230;9.220;2023-04-09T13:29:38;3.20;;;3.00;;
17259;SDS011;8746;49.230;9.220;2023-04-09T13:32:04;3.07;;;2.77;;
17259;SDS011;8746;49.230;9.220;2023-04-09T13:34:34;3.10;;;2.90;;
17259;SDS011;8746;49.230;9.220;2023-04-09T13:37:00;3.00;;;2.80;;
17259;SDS011;8746;49.230;9.220;2023-04-09T13:39:26;2.93;;;2.70;;
17259;SDS011;8746;49.230;9.220;2023-04-09T13:41:51;3.53;;;3.23;;
17259;SDS011;8746;49.230;9.220;2023-04-09T13:44:19;2.97;;;2.73;;
17259;SDS011;8746;49.230;9.220;2023-04-09T13:46:45;3.60;;;3.30;;
17259;SDS011;8746;49.230;9.220;2023-04-09T13:49:10;2.60;;;2.40;;
17259;SDS011;8746;49.230;9.220;2023-04-09T13:51:35;3.30;;;3.00;;
17259;SDS011;8746;49.230;9.220;2023-04-09T13:54:01;3.30;;;3.00;;
17259;SDS011;8746;49.230;9.220;2023-04-09T13:56:26;3.50;;;3.20;;
17259;SDS011;8746;49.230;9.220;2023-04-09T13:58:52;3.47;;;3.10;;
17259;SDS011;8746;49.230;9.220;2023-04-09T14:01:18;2.90;;;2.53;;
17259;SDS011;8746;49.230;9.220;2023-04-09T14:03:43;2.93;;;2.73;;
17259;SDS011;8746;49.230;9.220;2023-04-09T14:06:08;3.10;;;2.90;;
17259;SDS011;8746;49.230;9.220;2023-04-09T14:08:34;3.40;;;3.10;;
17259;SDS011;8746;49.230;9.220;2023-04-09T14:11:00;3.17;;;2.90;;
17259;SDS011;8746;49.230;9.220;2023-04-09T14:13:26;3.23;;;2.90;;
17259;SDS011;8746;49.230;9.220;2023-04-09T14:15:51;3.50;;;3.20;;
17259;SDS011;8746;49.230;9.220;2023-04-09T14:18:17;3.47;;;3.17;;
17259;SDS011;8746;49.230;9.220;2023-04-09T14:20:42;3.73;;;3.43;;
17259;SDS011;8746;49.230;9.220;2023-04-09T14:23:08;3.87;;;3.57;;
17259;SDS011;8746;49.230;9.220;2023-04-09T14:25:33;4.30;;;3.70;;
17259;SDS011;8746;49.230;9.220;2023-04-09T14:27:58;3.87;;;3.57;;
17259;SDS011;8746;49.230;9.220;2023-04-09T14:30:24;3.50;;;3.07;;
17259;SDS011;8746;49.230;9.220;2023-04-09T14:32:49;3.23;;;2.97;;
17259;SDS011;8746;49.230;9.220;2023-04-09T14:35:15;3.40;;;3.10;;
17259;SDS011;8746;49.230;9.220;2023-04-09T14:37:40;3.63;;;3.33;;
17259;SDS011;8746;49.230;9.220;2023-04-09T14:40:06;3.90;;;3.50;;
17259;SDS011;8746;49.230;9.220;2023-04-09T14:42:32;3.53;;;3.23;;
17259;SDS011;8746;49.230;9.220;2023-04-09T14:44:57;3.53;;;3.23;;
17259;SDS011;8746;49.230;9.220;2023-04-09T14:47:23;3.03;;;2.83;;
17259;SDS011;8746;49.230;9.220;2023-04-09T14:49:48;3.13;;;2.83;;
17259;SDS011;8746;49.230;9.220;2023-04-09T14:52:13;3.43;;;3.13;;
17259;SDS011;8746;49.230;9.220;2023-04-09T14:54:39;3.27;;;2.97;;
17259;SDS011;8746;49.230;9.220;2023-04-09T14:57:04;2.83;;;2.63;;
17259;SDS011;8746;49.230;9.220;2023-04-09T14:59:30;3.47;;;3.23;;
17259;SDS011;8746;49.230;9.220;2023-04-09T15:01:56;3.43;;;3.13;;
17259;SDS011;8746;49.230;9.220;2023-04-09T15:04:21;3.30;;;3.00;;
17259;SDS011;8746;49.230;9.220;2023-04-09T15:06:47;3.60;;;3.30;;
17259;SDS011;8746;49.230;9.220;2023-04-09T15:09:13;3.37;;;3.07;;
17259;SDS011;8746;49.230;9.220;2023-04-09T15:11:38;3.60;;;3.30;;
17259;SDS011;8746;49.230;9.220;2023-04-09T15:14:04;3.40;;;3.10;;
17259;SDS011;8746;49.230;9.220;2023-04-09T15:16:29;3.60;;;3.30;;